Date,TemperatureHighF,TemperatureAvgF,TemperatureLowF,DewpointHighF,DewpointAvgF,DewpointLowF,HumidityHigh,HumidityAvg,HumidityLow,PressureMaxIn,PressureMinIn,WindSpeedMaxMPH,WindSpeedAvgMPH,GustSpeedMaxMPH,PrecipitationSumIn
2013-1-1,40.5,31.3,26.4,32.9,28.9,25.9,98,92,67,30.39,30.24,9,1,9,0.04
2013-1-2,45.3,33.0,27.9,32.8,27.2,24.8,98,81,49,30.24,30.06,6,1,6,0.04
2013-1-3,43.5,32.7,25.3,35.1,26.8,23.4,98,80,48,30.06,29.97,10,1,10,0.04
2013-1-4,42.6,37.9,34.0,41.8,37.2,31.1,98,97,89,30.21,30.00,9,2,11,0.12
2013-1-5,44.2,39.7,37.0,42.3,38.6,36.5,98,96,79,30.06,29.91,10,1,11,0.17
2013-1-6,44.8,42.2,40.6,42.3,40.5,39.0,98,94,82,30.03,29.82,12,2,13,0.37
2013-1-7,51.6,44.1,40.6,47.3,42.3,40.1,98,94,73,30.00,29.65,13,3,13,0.42
2013-1-8,49.5,43.9,39.7,48.9,43.2,39.2,98,97,81,30.03,29.53,12,2,12,1.28
2013-1-9,47.7,44.1,36.1,43.0,37.3,29.9,92,77,65,29.79,29.53,13,3,13,0.04
2013-1-10,37.8,34.7,30.6,36.3,31.4,24.0,97,88,73,30.00,29.79,6,2,10,0.25
2013-1-11,38.7,30.4,24.6,23.8,18.5,14.1,86,63,40,30.21,30.00,8,3,12,0.00
2013-1-12,35.8,26.8,21.2,21.5,18.0,15.2,87,71,44,30.33,30.18,8,2,10,0.00
2013-1-13,36.9,28.0,19.8,26.6,22.1,17.1,92,79,61,30.39,30.30,4,1,6,0.00
2013-1-14,35.4,33.3,31.1,33.8,29.4,24.4,97,85,76,30.44,30.33,4,1,7,0.00
2013-1-15,42.4,34.1,29.5,32.7,29.2,26.8,97,83,61,30.56,30.44,4,1,5,0.00
2013-1-16,44.1,34.1,27.9,32.0,29.6,26.5,98,85,54,30.53,30.39,5,1,8,0.00
2013-1-17,44.4,31.5,26.6,36.8,28.8,26.1,98,91,61,30.39,30.15,4,1,7,0.00
2013-1-18,39.4,32.7,27.7,38.4,32.1,27.2,98,97,92,30.21,30.09,4,1,6,0.00
2013-1-19,38.7,32.6,29.3,38.2,32.1,28.8,98,98,97,30.27,30.18,5,1,6,0.00
2013-1-20,39.9,34.5,27.3,38.2,33.7,26.8,98,97,87,30.27,30.15,7,2,9,0.00
2013-1-21,43.9,34.1,28.2,36.5,32.6,27.7,98,94,65,30.15,30.00,6,2,8,0.00
2013-1-22,38.7,34.3,31.1,38.2,33.6,30.6,98,97,92,30.00,29.79,3,1,4,0.00
2013-1-23,44.1,39.1,34.3,43.5,38.1,32.4,98,96,85,29.94,29.65,7,2,10,0.42
2013-1-24,46.9,42.1,37.9,42.5,38.7,35.8,98,89,66,30.06,29.85,6,2,15,0.08
2013-1-25,54.7,44.0,37.0,46.0,40.5,36.0,98,88,59,29.91,29.76,6,1,10,0.00
2013-1-26,43.9,40.6,38.8,41.2,38.8,33.8,98,93,78,29.88,29.71,5,2,10,0.37
2013-1-27,41.7,39.9,38.1,41.2,39.4,37.6,98,98,96,29.88,29.82,5,1,7,0.33
2013-1-28,41.0,39.4,37.8,40.0,38.7,37.0,98,97,91,29.91,29.82,7,2,11,0.13
2013-1-29,45.1,41.7,38.1,44.6,41.2,37.6,98,98,95,30.18,29.91,5,1,13,0.17
2013-1-30,47.7,44.4,42.6,46.6,43.7,42.1,98,98,94,30.24,30.15,7,2,14,0.04
2013-1-31,47.1,45.4,43.2,46.6,44.9,42.6,98,98,98,30.21,30.15,6,2,10,0.08
2013-2-1,51.1,44.8,37.9,47.5,42.8,37.4,98,93,68,30.30,30.18,5,1,8,0.00
2013-2-2,48.2,39.1,33.3,42.1,38.2,32.8,98,97,65,30.27,30.12,9,2,10,0.00
2013-2-3,45.3,42.5,39.4,44.0,41.7,38.6,98,97,92,30.18,30.03,5,1,7,0.08
2013-2-4,52.2,45.1,40.1,43.9,41.9,38.4,98,89,63,30.03,29.71,6,2,12,0.00
2013-2-5,49.8,46.2,39.9,44.1,41.1,38.2,98,83,66,29.76,29.65,9,3,14,0.17
2013-2-6,50.5,45.4,43.0,43.1,39.3,33.5,97,80,57,29.85,29.65,6,2,15,0.08
2013-2-7,53.1,42.9,30.7,39.1,35.0,30.2,98,75,47,30.06,29.62,13,2,15,0.00
2013-2-8,47.3,37.4,28.9,41.3,34.7,28.5,98,91,70,30.18,30.06,5,1,6,0.00
2013-2-9,44.1,40.0,32.9,41.4,38.8,32.4,98,95,86,30.21,30.09,2,0,4,0.00
2013-2-10,46.2,36.2,28.6,42.5,34.1,28.1,98,92,70,30.27,30.18,4,1,6,0.00
2013-2-11,44.2,41.5,39.2,42.5,40.3,38.7,98,96,85,30.21,30.15,4,1,8,0.04
2013-2-12,50.7,45.4,42.4,45.4,42.4,40.7,98,90,74,30.27,30.12,6,2,12,0.00
2013-2-13,51.3,44.9,36.5,41.7,38.1,33.2,95,77,61,30.33,30.12,4,1,13,0.00
2013-2-14,44.2,44.0,43.5,40.8,40.1,39.7,90,86,84,30.33,30.33,4,2,6,0.00
2013-2-15,44.6,43.4,40.6,42.8,41.0,39.0,98,91,86,30.12,30.03,4,2,8,0.00
2013-2-16,52.2,46.0,41.2,45.5,40.9,37.3,98,84,58,30.03,29.94,13,4,15,0.04
2013-2-17,52.3,44.1,36.5,40.0,34.2,29.6,89,69,49,30.15,30.03,9,2,10,0.04
2013-2-21,43.3,41.9,36.1,40.7,38.9,33.2,94,89,83,30.06,29.88,4,2,8,0.29
2013-2-22,50.4,42.4,37.0,42.8,38.0,30.9,98,85,53,29.91,29.53,19,4,26,0.33
2013-2-23,50.2,42.6,38.5,38.2,35.8,32.0,94,77,56,30.21,29.71,9,3,10,0.00
2013-2-24,48.4,44.2,39.9,38.3,35.0,33.0,94,71,58,30.21,29.74,9,3,18,0.00
2013-2-25,44.8,42.5,41.0,40.4,38.2,35.6,96,85,70,29.76,29.68,8,4,17,0.04
2013-3-3,50.5,41.6,30.6,38.6,33.6,29.6,97,74,50,30.36,30.09,16,6,19,1.20
2013-3-4,50.0,38.8,28.6,41.7,32.4,24.8,98,80,51,30.18,29.85,10,2,11,0.00
2013-3-5,48.2,44.3,39.6,40.3,27.5,21.6,94,53,40,29.85,29.65,13,4,20,0.00
2013-3-6,43.7,42.2,39.0,40.9,38.5,33.3,98,87,69,29.76,29.53,10,4,14,0.25
2013-3-7,56.3,42.9,35.4,43.4,39.1,34.6,98,88,52,30.15,29.76,6,1,10,0.12
2013-3-8,50.2,40.2,32.5,41.0,36.6,32.0,98,88,63,30.27,29.94,9,2,11,0.05
2013-3-9,56.5,41.0,29.7,42.8,35.2,29.2,98,82,50,30.50,30.09,6,1,7,0.00
2013-3-10,48.2,43.9,37.6,41.3,39.1,35.5,97,84,71,30.36,30.27,6,1,6,0.00
2013-3-11,51.8,43.7,34.9,42.8,39.2,34.4,98,85,59,30.33,30.00,6,1,7,0.12
2013-3-12,50.9,48.8,43.2,50.4,47.8,42.5,98,96,90,30.00,29.82,10,3,15,0.58
2013-3-13,52.2,51.0,49.3,50.6,49.5,48.2,98,95,87,30.03,29.94,10,2,11,1.20
2013-3-14,52.9,50.0,48.4,50.0,47.5,45.1,97,91,84,30.00,29.88,4,2,10,0.25
2013-3-15,61.5,51.1,46.6,49.5,46.6,44.0,98,86,55,30.09,30.00,10,2,16,0.04
2013-3-16,49.8,46.2,39.7,47.7,41.8,31.0,98,86,52,30.00,29.74,17,5,20,0.21
2013-3-17,52.5,44.6,40.5,36.0,31.5,28.4,76,60,41,30.12,29.79,15,5,26,0.00
2013-3-18,42.3,39.5,37.9,38.2,36.1,32.3,98,88,69,30.00,29.88,8,3,12,0.17
2013-3-20,46.6,42.7,39.4,31.1,27.7,24.5,63,55,49,29.82,29.62,19,6,19,0.00
2013-3-21,53.8,42.6,34.2,36.7,30.4,26.4,85,63,40,30.18,29.82,20,4,20,0.00
2013-3-22,48.4,40.9,30.0,35.0,29.9,25.4,87,65,44,30.41,30.03,20,8,20,0.00
2013-3-23,55.9,39.3,29.3,33.7,28.4,22.6,95,69,36,30.44,30.18,8,2,8,0.00
2013-3-24,56.3,41.4,30.9,37.6,30.3,25.5,92,67,35,30.27,30.00,10,2,10,0.00
2013-3-25,57.0,43.7,34.9,42.7,36.0,31.5,95,76,52,30.09,29.85,10,2,10,0.00
2013-3-26,58.8,44.6,33.3,45.2,38.5,32.8,98,81,50,30.09,29.82,8,2,9,0.00
2013-3-27,57.0,46.0,34.3,45.2,39.3,33.8,98,79,49,29.91,29.79,13,2,13,0.00
2013-3-28,63.5,49.1,36.7,48.6,40.9,35.8,98,75,46,30.18,29.85,9,2,9,0.00
2013-3-29,60.1,48.2,41.0,49.5,44.1,38.6,98,87,55,30.30,30.00,7,2,7,0.00
2013-3-30,58.3,46.6,36.3,50.9,42.6,35.6,98,87,64,30.27,29.97,13,3,13,0.00
2013-3-31,59.9,47.6,36.9,50.0,42.6,36.3,98,84,58,30.06,29.79,11,2,11,0.00
2013-4-1,63.9,50.9,39.6,50.0,44.3,38.6,98,80,49,30.21,29.82,9,2,9,0.00
2013-4-2,61.7,51.4,46.9,47.1,43.5,38.6,97,76,47,30.21,30.00,8,2,9,0.00
2013-4-3,58.5,50.9,46.0,49.9,46.3,42.6,98,85,66,30.12,29.88,11,3,11,0.00
2013-4-4,54.3,53.3,45.9,53.6,51.0,43.4,98,92,82,29.88,29.47,13,2,13,0.29
2013-4-5,63.1,53.3,48.6,52.7,47.7,42.4,98,82,58,29.76,29.53,10,2,12,0.29
2013-4-6,61.2,51.0,43.5,46.2,41.4,34.5,96,72,46,29.88,29.50,13,3,15,0.17
2013-4-7,52.2,45.5,41.9,45.3,41.7,36.8,98,87,66,29.74,29.41,25,4,25,0.16
2013-4-8,64.4,50.0,44.1,45.5,42.5,37.3,98,78,41,30.30,29.74,5,1,6,0.00
2013-4-9,51.4,47.6,44.8,46.6,43.4,38.3,95,86,61,30.15,30.00,8,1,8,0.00
2013-4-10,60.4,51.8,48.4,48.8,43.4,37.0,97,74,57,30.09,29.74,23,4,23,0.33
2013-4-11,59.7,49.7,38.3,41.2,35.8,29.1,88,61,36,30.39,30.03,11,3,11,0.00
2013-4-12,46.4,42.9,38.5,42.2,38.3,31.5,96,84,63,30.03,29.53,17,2,18,0.38
2013-4-13,59.5,44.7,36.3,42.3,36.3,27.8,96,74,45,30.03,29.56,24,4,24,0.21
2013-4-14,54.0,45.6,37.8,42.5,37.7,33.7,98,76,49,30.09,29.79,10,2,10,0.00
2013-4-15,61.7,47.0,39.7,44.7,38.5,30.0,98,75,38,30.24,29.79,13,3,13,0.08
2013-4-16,58.8,45.7,32.2,45.5,34.9,30.3,98,69,35,30.47,30.03,18,4,18,0.00
2013-4-17,63.0,50.3,36.1,41.0,35.0,32.1,88,58,34,30.39,30.21,13,3,15,0.00
2013-4-18,55.8,47.5,43.3,47.7,43.6,38.9,98,87,58,30.33,30.00,10,1,13,0.46
2013-4-19,59.4,50.8,47.5,52.6,48.1,45.4,98,91,66,30.12,29.88,8,1,8,0.58
2013-4-20,65.7,52.9,47.3,48.0,43.3,37.9,96,71,45,30.21,30.00,15,4,15,0.04
2013-4-21,56.7,47.5,39.0,43.9,39.8,34.1,96,76,47,30.39,30.06,20,4,20,0.16
2013-4-22,59.0,46.6,35.8,45.2,35.3,27.2,94,67,36,30.62,30.24,13,4,13,0.00
2013-4-23,59.2,47.8,34.0,45.6,38.3,31.9,98,72,43,30.41,30.15,12,3,12,0.00
2013-4-24,70.7,50.8,34.9,50.2,39.5,34.2,98,71,32,30.27,29.94,8,1,8,0.00
2013-4-25,67.5,54.0,40.1,48.0,42.3,37.1,97,67,40,30.24,29.88,8,2,9,0.00
2013-4-26,61.9,53.5,46.6,48.9,41.1,33.6,92,66,36,30.15,30.00,8,1,8,0.00
2013-4-27,54.7,51.0,45.3,50.0,44.2,38.9,95,78,58,30.09,29.97,10,1,10,0.09
2013-4-28,62.2,49.9,40.5,44.2,39.2,33.6,98,69,40,30.12,29.76,12,1,12,0.04
2013-4-29,57.2,48.8,43.5,45.6,36.8,26.7,97,65,38,30.18,29.76,23,9,24,0.00
2013-4-30,59.4,48.7,36.3,41.6,34.0,29.4,84,58,35,30.47,29.97,19,7,19,0.00
2013-5-1,62.4,49.5,36.3,43.7,36.7,31.7,91,64,35,30.68,30.27,12,2,12,0.00
2013-5-2,57.7,49.1,37.4,47.8,41.9,36.3,98,78,52,30.41,30.24,13,3,13,0.00
2013-5-3,56.3,45.1,39.2,50.0,42.8,38.7,98,92,63,30.27,30.24,13,2,13,0.00
2013-5-12,65.7,59.8,56.7,58.6,55.8,52.6,98,87,66,29.97,29.88,6,1,6,0.04
2013-5-13,67.8,56.5,49.1,58.2,49.8,39.6,98,80,53,30.06,29.79,24,3,24,0.04
2013-5-14,70.3,56.2,48.4,45.9,41.3,33.5,86,60,35,30.27,30.00,16,3,17,0.00
2013-5-15,63.9,54.1,45.3,52.0,47.0,42.5,96,78,52,30.03,29.88,10,2,10,0.04
2013-5-16,65.1,57.3,47.8,55.7,51.3,45.9,98,81,50,30.09,29.82,11,3,11,0.04
2013-5-17,60.3,55.1,47.1,54.0,50.8,45.7,98,86,70,29.91,29.79,8,1,8,0.04
2013-5-18,65.8,56.1,49.5,53.2,49.1,44.5,98,79,49,30.36,29.91,8,1,8,0.04
2013-5-19,68.2,56.8,46.8,53.1,47.6,39.3,95,74,40,30.59,30.15,15,3,15,0.00
2013-5-20,66.7,56.1,46.6,53.5,47.2,43.4,98,74,46,30.24,29.79,13,2,13,0.00
2013-5-21,65.5,51.7,47.3,50.7,46.7,40.6,98,84,46,29.82,29.65,16,3,16,0.46
2013-5-22,59.9,51.7,45.1,48.2,44.9,39.7,98,79,51,29.82,29.71,8,2,8,0.12
2013-5-23,71.6,53.7,42.1,50.5,43.7,37.0,98,73,33,30.21,29.79,8,1,8,0.13
2013-5-24,68.5,54.2,40.6,54.3,42.9,37.6,98,70,36,30.24,29.82,12,2,12,0.00
2013-5-25,70.9,57.4,50.4,49.8,46.6,42.5,92,69,39,30.27,29.85,11,2,11,0.00
2013-5-26,65.3,55.9,50.5,54.5,50.6,46.8,98,84,56,29.94,29.79,6,0,6,0.37
2013-5-27,57.0,55.8,54.9,55.3,54.0,52.6,97,94,87,29.85,29.59,6,0,6,0.25
2013-5-28,62.6,56.2,48.4,52.6,49.1,44.3,96,78,55,29.79,29.62,10,1,10,0.08
2013-5-29,66.2,53.5,49.1,53.4,49.9,45.5,98,89,49,29.82,29.56,10,1,10,0.09
2013-5-30,70.7,55.7,48.7,50.7,47.3,41.3,98,76,40,30.30,29.82,11,1,11,0.04
2013-5-31,67.6,56.7,46.9,51.8,47.7,41.3,98,75,40,30.50,30.09,8,2,8,0.00
2013-6-1,61.2,52.7,46.2,53.6,49.0,44.2,97,88,64,30.15,30.09,8,1,8,0.00
2013-6-2,71.4,61.0,51.4,54.4,48.8,43.1,89,66,38,30.24,29.94,16,5,16,0.00
2013-6-3,67.8,57.9,48.4,54.9,50.1,44.9,95,76,54,30.36,29.94,9,2,10,0.00
2013-6-4,77.2,57.7,46.2,53.5,48.7,45.3,97,75,36,30.09,29.94,4,0,5,0.00
2013-6-5,70.2,58.9,54.1,58.0,51.3,45.8,94,77,48,30.15,29.91,10,2,10,0.00
2013-6-6,81.9,62.4,49.5,58.3,50.2,39.2,98,69,30,30.15,29.88,9,2,9,0.00
2013-6-7,75.9,61.6,52.7,48.5,44.9,37.7,75,56,36,30.24,29.85,11,2,12,0.00
2013-6-8,75.0,59.8,50.9,49.8,46.3,42.4,90,64,33,30.27,30.00,10,2,11,0.00
2013-6-9,74.7,60.5,50.5,50.6,45.7,34.2,92,62,32,30.21,29.94,10,1,10,0.00
2013-6-10,71.2,58.3,48.0,51.5,45.7,39.8,91,66,34,30.03,29.82,11,3,11,0.00
2013-6-11,72.0,58.5,51.8,47.7,43.9,38.9,77,60,35,30.15,29.79,13,2,13,0.00
2013-6-12,54.3,53.1,51.8,49.6,47.7,44.8,89,82,77,29.97,29.97,4,0,5,0.00
2013-6-15,68.4,63.7,54.7,57.9,55.6,52.0,93,75,60,30.00,29.88,12,5,12,0.04
2013-6-16,78.8,62.7,53.1,54.4,50.3,45.7,97,67,37,30.09,29.88,11,2,11,0.00
2013-6-17,77.4,64.1,53.8,53.9,50.0,46.6,88,63,37,30.09,29.82,9,2,10,0.00
2013-6-18,75.0,62.1,53.6,56.6,52.0,43.4,97,73,34,30.03,29.85,10,2,10,0.04
2013-6-25,71.4,62.0,59.7,54.1,52.9,47.8,81,73,43,30.03,29.74,8,1,8,1.41
2013-6-26,80.4,64.3,57.2,59.5,53.7,49.7,94,70,41,30.15,29.74,10,1,10,0.04
2013-6-27,81.1,64.2,58.5,62.4,58.3,53.8,98,82,45,30.18,29.94,12,0,12,0.08
2013-6-28,67.8,61.6,57.2,61.4,58.1,54.2,98,89,71,30.12,30.00,8,2,8,0.00
2013-6-29,81.3,68.0,57.9,63.2,59.1,55.2,98,76,45,30.30,29.91,6,2,6,0.00
2013-6-30,79.7,66.3,56.7,63.8,58.4,54.3,98,77,52,30.06,29.79,4,3,4,0.00
2013-7-1,87.1,70.6,60.8,63.4,56.5,49.3,84,63,35,30.15,29.79,13,2,13,0.00
2013-7-2,81.7,67.8,58.1,58.4,53.2,45.4,89,63,33,30.33,29.91,13,2,13,0.00
2013-7-3,81.0,65.0,54.9,55.1,49.1,40.2,89,60,29,30.24,29.91,10,3,10,0.00
2013-7-4,79.7,65.2,55.2,53.6,50.1,43.8,89,62,32,30.18,29.91,14,3,14,0.00
2013-7-5,78.1,63.7,54.0,57.4,53.0,49.0,95,70,40,30.24,29.85,9,2,9,0.00
2013-7-6,75.2,63.3,51.4,60.8,54.7,49.1,98,75,42,30.21,29.74,13,4,13,0.00
2013-7-7,76.6,65.1,55.4,59.0,54.4,49.4,89,69,45,30.18,29.71,10,3,10,0.00
2013-7-8,79.3,65.4,55.9,58.1,54.7,51.4,94,71,41,30.21,29.82,8,2,8,0.00
2013-7-9,83.5,67.5,54.5,59.7,54.3,44.0,96,66,34,30.21,29.85,8,2,8,0.00
2013-7-10,79.2,64.4,55.6,53.4,48.3,39.5,91,59,31,30.12,29.79,11,3,12,0.00
2013-7-11,55.4,53.5,51.4,47.1,44.8,43.3,80,72,67,29.82,29.82,5,1,5,0.00
2013-7-31,64.0,63.5,63.1,53.8,53.7,53.5,71,70,69,29.91,29.88,5,1,6,0.00
2013-8-18,75.7,66.5,56.8,57.6,51.9,48.8,79,60,44,30.09,29.94,10,2,10,0.42
2013-8-19,59.2,56.6,54.9,53.0,51.5,49.5,86,83,77,29.94,29.91,4,0,5,0.00
2013-8-27,65.1,61.6,59.4,59.0,56.7,54.4,97,84,70,29.82,29.74,8,2,8,0.04
2013-8-28,73.6,63.5,58.5,63.1,59.0,55.7,98,86,58,29.94,29.74,6,1,6,0.13
2013-8-29,78.8,65.7,60.4,66.2,61.4,56.8,98,87,52,29.97,29.76,12,1,12,0.20
2013-8-30,74.8,65.2,56.1,61.8,56.0,49.5,98,75,44,30.24,29.85,10,2,10,0.08
2013-8-31,71.2,61.1,52.7,59.5,55.5,51.2,98,83,51,30.06,29.76,11,2,11,0.00
2013-9-1,81.5,63.9,51.6,63.8,53.6,47.2,98,73,36,29.94,29.74,10,2,10,0.00
2013-9-2,79.3,64.8,58.6,60.0,55.3,50.6,92,72,41,30.00,29.76,8,1,8,0.00
2013-9-3,59.0,57.4,56.5,55.8,54.5,53.3,94,90,84,29.85,29.82,3,0,3,0.00
2013-9-4,70.0,62.5,58.3,60.9,57.8,55.0,95,85,66,30.03,29.91,5,1,5,0.00
2013-9-5,65.7,59.9,54.5,62.9,58.2,54.0,98,94,76,29.94,29.82,10,2,10,0.04
2013-9-6,69.6,62.7,58.5,64.4,60.2,57.6,98,92,76,30.06,29.79,9,0,10,0.09
2013-9-7,64.9,62.3,60.8,62.6,60.0,58.3,97,92,80,30.03,29.97,5,1,6,0.00
2013-9-14,61.9,59.0,56.8,59.8,57.4,56.3,98,94,84,29.76,29.68,6,2,6,0.00
2013-9-15,70.7,59.0,55.2,59.4,56.9,53.1,98,93,61,29.74,29.62,8,1,9,0.16
2013-9-16,67.1,60.3,56.8,61.2,56.6,49.0,98,88,70,29.88,29.68,9,1,10,0.29
2013-9-17,67.6,58.7,55.0,54.6,51.1,47.2,92,76,49,29.91,29.76,6,2,7,0.00
2013-9-18,73.2,60.1,50.2,53.8,49.2,42.5,94,71,36,30.15,29.82,8,1,8,0.00
2013-9-19,73.2,58.3,50.2,53.1,49.0,43.4,95,74,42,29.97,29.65,7,1,7,0.00
2013-9-20,71.6,56.9,46.9,56.7,49.2,43.4,98,78,39,29.65,29.53,10,1,10,0.04
2013-9-21,70.2,61.1,55.2,56.7,51.3,44.6,97,72,45,29.82,29.53,8,2,9,0.00
2013-9-22,63.0,57.0,54.9,55.3,52.2,46.6,96,84,61,29.62,29.41,18,2,18,0.29
2013-9-23,66.2,56.4,51.8,55.1,50.5,40.4,98,83,42,29.97,29.59,7,1,7,0.29
2013-9-28,58.8,54.8,52.0,58.1,49.3,41.7,98,82,61,29.32,29.17,18,3,19,0.29
2013-9-29,58.6,53.7,51.6,52.4,47.9,35.2,96,82,48,29.41,29.03,23,3,23,0.58
2013-9-30,58.5,51.3,47.7,51.7,45.0,35.8,95,80,54,29.76,29.20,14,2,15,0.42
2013-10-1,63.9,51.8,47.8,47.7,44.3,38.9,91,77,45,29.94,29.76,11,2,11,0.29
2013-10-2,54.0,49.8,45.3,49.3,47.2,44.0,98,91,75,30.06,29.91,7,1,10,0.29
2013-10-3,57.9,46.8,38.1,52.5,42.9,37.6,98,88,57,30.47,30.06,8,1,8,0.29
2013-10-4,59.0,47.3,36.0,55.1,42.7,35.2,98,85,58,30.36,30.21,6,1,6,0.00
2013-10-5,64.2,54.3,47.5,53.5,48.3,43.8,97,82,55,30.24,30.00,8,1,8,0.00
2013-10-6,76.6,55.2,41.7,57.4,43.8,37.2,98,71,34,30.00,29.71,7,1,11,0.00
2013-10-7,63.5,55.6,52.0,51.5,46.6,40.7,95,73,47,29.85,29.71,11,3,13,0.37
2013-10-8,61.3,51.7,42.4,47.9,42.4,36.7,92,72,44,30.06,29.82,18,5,18,0.09
2013-10-9,61.9,46.3,37.0,47.5,39.6,34.9,98,80,45,30.03,29.94,8,1,8,0.00
2013-10-11,54.3,49.0,39.6,48.7,43.5,39.0,98,82,68,30.09,29.97,4,1,4,0.00
2013-10-12,55.9,49.5,41.9,50.4,45.2,40.0,98,86,66,30.18,29.97,13,4,13,0.08
2013-10-13,59.7,45.9,37.6,47.5,40.6,36.8,98,84,46,30.36,30.09,9,1,9,0.00
2013-10-14,56.5,44.4,35.4,49.0,40.2,34.7,98,86,57,30.44,30.24,10,2,10,0.00
2013-10-15,57.7,47.0,38.5,51.5,43.9,37.7,98,90,61,30.27,30.06,9,1,9,0.00
2013-10-16,56.3,49.7,43.3,51.2,47.0,41.5,98,91,72,30.21,30.03,13,3,13,0.00
2013-10-17,52.7,48.3,42.4,49.1,46.7,41.7,98,94,74,30.21,30.06,10,3,11,0.00
2013-10-18,52.0,46.8,43.0,49.8,45.7,42.5,98,96,76,30.15,30.03,10,3,10,0.00
2013-10-19,49.8,47.2,42.8,49.1,46.3,42.3,98,97,92,30.09,30.03,8,2,8,0.00
2013-10-20,50.4,48.5,47.5,47.7,46.9,45.0,98,94,84,30.12,30.06,8,2,8,0.00
2013-10-21,50.2,48.2,46.9,48.9,47.5,46.2,98,97,93,30.09,30.00,9,3,9,0.00
2013-10-22,46.8,46.3,45.9,46.2,45.7,45.3,98,98,98,30.06,30.03,3,0,3,0.00
2013-10-29,59.7,44.2,33.3,39.5,30.3,21.3,86,62,35,30.00,29.82,6,0,6,0.00
2013-10-30,59.0,46.8,34.3,46.2,37.5,30.9,93,72,41,30.03,29.88,10,1,10,0.04
2013-10-31,55.9,50.2,47.7,52.6,47.7,42.4,98,91,76,30.15,29.94,12,1,12,0.33
2013-11-1,57.2,52.3,49.6,49.7,48.2,45.7,95,86,69,30.15,29.68,8,1,8,0.09
2013-11-2,53.4,48.2,43.0,50.7,44.2,35.7,98,86,66,29.76,29.29,33,7,33,0.58
2013-11-3,43.3,42.8,42.3,40.6,39.8,39.1,91,89,86,29.76,29.76,3,0,4,0.00
2013-11-6,47.1,46.5,46.0,39.8,38.7,37.9,76,74,71,30.12,29.88,10,2,11,0.16
2013-11-7,53.4,48.3,44.4,51.6,44.1,38.7,98,86,69,29.88,29.56,12,2,17,0.37
2013-11-8,57.0,49.2,45.9,45.7,40.3,33.5,94,73,46,30.09,29.82,13,1,13,0.09
2013-11-9,47.1,43.4,41.0,40.7,39.7,38.3,94,87,73,30.00,29.97,0,0,0,0.09
2013-11-10,50.4,44.6,41.7,43.4,40.5,30.4,95,87,47,30.06,30.00,11,1,13,0.09
2013-11-11,58.1,50.0,44.2,38.0,33.0,29.6,76,53,38,30.06,29.88,18,2,18,0.09
2013-11-12,59.4,52.2,46.0,50.0,44.3,35.3,91,75,59,30.18,29.88,13,2,13,0.09
2013-11-13,59.2,52.0,46.9,50.0,44.6,40.1,93,77,52,30.30,30.18,7,1,7,0.09
2013-11-14,48.6,46.6,40.5,44.4,41.9,33.3,92,84,66,30.18,29.94,5,0,5,0.00
2013-11-15,46.9,44.8,42.4,45.9,40.6,33.9,98,86,64,29.94,29.17,26,4,26,0.75
2013-11-16,47.7,45.1,36.1,36.6,32.8,27.8,88,63,49,29.68,29.20,32,11,33,0.00
2013-11-17,50.7,44.6,34.2,43.8,38.9,31.3,98,81,57,29.79,29.65,12,3,12,0.12
2013-11-18,47.8,45.6,43.7,47.0,44.2,41.9,98,95,87,29.79,29.41,13,1,13,1.04
2013-11-19,45.7,44.3,41.7,43.5,30.9,16.7,98,62,33,29.82,29.44,30,12,30,0.04
2013-11-20,42.4,32.2,27.1,19.2,16.0,13.5,64,51,38,30.39,29.94,10,2,10,0.00
2013-11-21,41.9,30.9,24.1,21.5,17.2,14.5,71,58,39,30.62,30.39,6,1,8,0.00
2013-11-22,45.7,33.6,27.5,28.3,22.5,17.8,80,65,40,30.53,30.33,8,2,8,0.00
2013-11-23,48.7,36.2,29.1,29.2,26.4,23.1,85,69,42,30.33,30.09,8,1,8,0.00
2013-11-24,48.0,36.1,29.3,41.4,31.5,26.3,97,84,57,30.15,30.03,6,1,7,0.00
2013-11-25,51.3,37.5,30.2,44.8,33.4,28.4,98,86,55,30.21,30.12,4,0,4,0.00
2013-11-26,33.3,31.1,29.8,30.6,28.8,27.8,92,91,90,30.12,30.03,1,0,1,0.00
2013-11-27,54.3,40.9,35.1,38.9,31.0,27.9,89,68,38,29.97,29.85,12,0,12,0.00
2013-11-28,52.7,40.8,31.1,41.9,34.8,28.5,97,80,53,30.03,29.88,3,0,3,0.00
2013-11-29,49.6,46.9,44.1,43.6,41.1,39.2,93,80,74,30.18,30.03,11,1,12,0.12
2013-11-30,48.2,46.4,45.0,46.3,45.0,43.3,98,95,87,30.18,29.97,10,1,13,0.30
2013-12-1,52.7,48.6,42.3,45.5,37.2,25.3,81,65,50,29.74,29.59,25,7,25,0.57
2013-12-2,42.1,38.1,31.3,36.5,24.3,8.2,94,58,37,29.97,29.62,27,7,31,0.30
2013-12-3,37.2,32.7,29.1,10.1,7.6,5.4,37,34,32,30.24,29.97,32,9,32,0.17
2013-12-4,37.0,30.5,25.3,9.1,5.0,1.8,38,33,30,30.27,30.15,22,6,22,0.00
2013-12-5,34.9,26.9,20.7,11.9,6.2,0.3,51,41,33,30.21,30.06,23,2,23,0.17
2013-12-6,27.1,22.9,19.8,0.7,-2.1,-4.8,34,33,31,30.15,30.06,34,11,34,0.17
2013-12-7,28.0,20.0,11.7,1.3,-4.4,-9.6,37,33,31,30.27,30.12,34,6,34,0.17
2013-12-8,33.1,21.9,11.5,12.5,4.7,-9.9,60,47,37,30.39,30.24,6,1,6,0.17
2013-12-9,34.2,31.4,25.7,21.3,14.1,9.6,62,48,43,30.41,30.33,7,1,7,0.17
2013-12-10,35.1,33.6,31.8,28.3,25.2,21.1,79,71,62,30.33,30.27,9,2,9,0.00
2013-12-11,34.0,32.0,29.1,25.0,23.5,22.5,77,71,63,30.12,30.03,4,0,4,0.00
2013-12-12,45.3,34.5,28.6,38.4,27.8,22.6,92,77,50,30.03,29.85,10,1,12,0.13
2013-12-13,46.6,42.4,37.4,45.7,41.4,35.3,98,96,89,30.30,29.97,10,1,10,0.08
2013-12-14,48.4,46.0,42.3,44.9,42.1,39.3,98,87,73,30.30,30.18,11,1,11,0.04
2013-12-15,50.7,46.2,37.0,46.9,43.3,33.8,97,90,77,30.30,30.12,11,2,11,0.08
2013-12-16,54.1,41.6,32.5,46.8,37.1,29.1,98,85,51,30.36,30.12,6,0,6,0.00
2013-12-17,34.5,33.1,32.2,32.7,30.8,28.9,93,91,89,30.12,30.09,2,0,2,0.00
2013-12-30,48.0,42.1,38.7,43.2,39.1,36.4,96,89,75,30.21,29.97,8,1,8,0.00
2013-12-31,45.9,43.9,43.0,45.1,42.7,40.6,98,95,90,30.27,30.03,9,1,9,0.04
2014-1-1,47.3,42.5,39.9,44.8,41.2,39.1,98,95,77,30.27,30.12,6,1,6,0.04
2014-1-2,46.4,45.6,43.9,45.7,40.9,27.3,98,85,49,29.82,29.74,27,9,27,0.75